createdAt,value
2023-04-27T00:01:35.296Z,2.28
2023-04-27T00:04:04.406Z,2.10
2023-04-27T00:06:32.523Z,2.50
2023-04-27T00:08:59.497Z,2.28
2023-04-27T00:11:26.270Z,1.98
2023-04-27T00:13:52.665Z,2.10
2023-04-27T00:16:19.069Z,1.90
2023-04-27T00:18:45.869Z,2.65
2023-04-27T00:21:12.358Z,1.98
2023-04-27T00:23:38.642Z,2.30
2023-04-27T00:26:04.906Z,2.35
2023-04-27T00:28:31.393Z,2.50
2023-04-27T00:30:57.668Z,2.40
2023-04-27T00:33:23.974Z,2.40
2023-04-27T00:35:50.340Z,2.17
2023-04-27T00:38:16.640Z,2.40
2023-04-27T00:40:42.921Z,2.45
2023-04-27T00:43:09.270Z,2.40
2023-04-27T00:45:41.159Z,2.05
2023-04-27T00:48:07.509Z,2.33
2023-04-27T00:50:34.123Z,2.08
2023-04-27T00:53:01.460Z,2.03
2023-04-27T00:55:27.848Z,2.10
2023-04-27T00:57:54.171Z,2.15
2023-04-27T01:00:20.923Z,2.33
2023-04-27T01:02:49.311Z,2.00
2023-04-27T01:05:15.832Z,2.00
2023-04-27T01:07:42.104Z,2.10
2023-04-27T01:10:08.604Z,2.00
2023-04-27T01:12:34.908Z,2.08
2023-04-27T01:15:01.180Z,2.15
2023-04-27T01:17:27.735Z,2.03
2023-04-27T01:22:45.602Z,2.00
2023-04-27T01:25:12.663Z,1.85
2023-04-27T01:27:38.914Z,2.00
2023-04-27T01:30:06.335Z,2.63
2023-04-27T01:32:32.692Z,2.05
2023-04-27T01:34:58.954Z,2.05
2023-04-27T01:37:26.285Z,2.20
2023-04-27T01:39:52.614Z,2.20
2023-04-27T01:42:18.892Z,2.08
2023-04-27T01:44:45.221Z,1.90
2023-04-27T01:47:11.560Z,2.10
2023-04-27T01:49:37.906Z,1.92
2023-04-27T01:52:04.438Z,1.85
2023-04-27T01:54:30.763Z,1.80
2023-04-27T01:56:58.671Z,2.00
2023-04-27T01:59:25.168Z,2.42
2023-04-27T02:01:51.485Z,1.85
2023-04-27T02:04:18.108Z,2.30
2023-04-27T02:06:44.586Z,2.15
2023-04-27T02:09:11.164Z,2.08
2023-04-27T02:11:37.500Z,2.00
2023-04-27T02:14:03.791Z,2.08
2023-04-27T02:16:30.409Z,2.20
2023-04-27T02:18:56.650Z,2.17
2023-04-27T02:21:23.273Z,2.10
2023-04-27T02:23:49.573Z,2.58
2023-04-27T02:26:22.484Z,1.90
2023-04-27T02:28:48.829Z,1.98
2023-04-27T02:31:15.616Z,2.00
2023-04-27T02:33:42.202Z,2.45
2023-04-27T02:36:08.976Z,2.20
2023-04-27T02:38:35.316Z,2.00
2023-04-27T02:41:01.681Z,2.42
2023-04-27T02:43:27.977Z,2.10
2023-04-27T02:45:54.227Z,2.42
2023-04-27T02:48:20.514Z,2.58
2023-04-27T02:50:46.841Z,2.38
2023-04-27T02:53:13.111Z,2.30
2023-04-27T02:55:46.301Z,2.25
2023-04-27T02:58:13.333Z,2.20
2023-04-27T03:00:40.948Z,3.15
2023-04-27T03:03:07.500Z,2.47
2023-04-27T03:05:34.067Z,2.08
2023-04-27T03:08:00.323Z,2.30
2023-04-27T03:10:26.660Z,1.95
2023-04-27T03:12:52.981Z,2.83
2023-04-27T03:15:19.257Z,2.40
2023-04-27T03:17:46.022Z,2.25
2023-04-27T03:20:12.595Z,2.58
2023-04-27T03:22:38.930Z,2.30
2023-04-27T03:25:05.502Z,2.40
2023-04-27T03:27:31.782Z,2.45
2023-04-27T03:29:58.093Z,1.92
2023-04-27T03:32:24.396Z,2.30
2023-04-27T03:34:50.776Z,2.90
2023-04-27T03:37:17.287Z,2.40
2023-04-27T03:39:45.032Z,2.30
2023-04-27T03:42:11.454Z,2.22
2023-04-27T03:44:37.720Z,3.08
2023-04-27T03:47:09.003Z,2.55
2023-04-27T03:49:35.559Z,2.25
2023-04-27T03:52:02.013Z,2.03
2023-04-27T03:54:28.333Z,2.08
2023-04-27T03:56:54.681Z,2.50
2023-04-27T03:59:21.202Z,2.63
2023-04-27T04:02:00.795Z,2.20
2023-04-27T04:06:53.836Z,2.40
2023-04-27T04:09:21.413Z,2.50
2023-04-27T04:11:48.951Z,2.50
2023-04-27T04:14:15.425Z,2.30
2023-04-27T04:16:41.735Z,2.30
2023-04-27T04:19:08.357Z,2.05
2023-04-27T04:21:34.800Z,2.30
2023-04-27T04:24:01.113Z,2.40
2023-04-27T04:26:27.530Z,2.80
2023-04-27T04:28:53.825Z,2.55
2023-04-27T04:31:21.498Z,2.50
2023-04-27T04:33:47.955Z,1.95
2023-04-27T04:36:14.241Z,2.42
2023-04-27T04:38:40.653Z,2.47
2023-04-27T04:41:07.290Z,2.33
2023-04-27T04:43:33.681Z,2.10
2023-04-27T04:45:59.990Z,2.20
2023-04-27T04:48:26.341Z,2.58
2023-04-27T04:50:52.800Z,3.15
2023-04-27T04:53:19.047Z,2.30
2023-04-27T04:55:45.431Z,2.67
2023-04-27T04:58:14.327Z,2.30
2023-04-27T05:00:40.594Z,2.40
2023-04-27T05:03:07.606Z,2.33
2023-04-27T05:05:34.196Z,2.40
2023-04-27T05:08:00.472Z,2.67
2023-04-27T05:10:26.843Z,2.30
2023-04-27T05:12:53.207Z,2.70
2023-04-27T05:15:19.479Z,2.45
2023-04-27T05:17:46.392Z,2.47
2023-04-27T05:20:12.877Z,2.55
2023-04-27T05:22:39.283Z,2.40
2023-04-27T05:25:06.650Z,2.55
2023-04-27T05:27:33.000Z,2.50
2023-04-27T05:29:59.390Z,2.83
2023-04-27T05:32:25.724Z,2.92
2023-04-27T05:34:52.897Z,2.55
2023-04-27T05:37:19.300Z,2.80
2023-04-27T05:39:45.633Z,2.42
2023-04-27T05:42:11.954Z,2.25
2023-04-27T05:44:39.685Z,2.78
2023-04-27T05:47:05.980Z,2.58
2023-04-27T05:49:32.293Z,2.75
2023-04-27T05:52:00.498Z,2.60
2023-04-27T05:54:27.694Z,2.90
2023-04-27T05:56:53.996Z,2.70
2023-04-27T05:59:20.423Z,3.83
2023-04-27T06:01:46.701Z,3.17
2023-04-27T06:04:13.134Z,2.28
2023-04-27T06:06:47.856Z,2.60
2023-04-27T06:09:15.027Z,2.60
2023-04-27T06:11:41.771Z,2.70
2023-04-27T06:14:08.404Z,2.97
2023-04-27T06:16:35.028Z,2.90
2023-04-27T06:19:01.556Z,2.50
2023-04-27T06:21:28.145Z,3.03
2023-04-27T06:23:54.430Z,2.60
2023-04-27T06:26:29.861Z,2.38
2023-04-27T06:28:56.483Z,2.40
2023-04-27T06:31:34.804Z,2.60
2023-04-27T06:34:01.165Z,2.50
2023-04-27T06:36:28.176Z,2.58
2023-04-27T06:38:56.431Z,2.30
2023-04-27T06:41:23.304Z,2.35
2023-04-27T06:43:50.079Z,2.58
2023-04-27T06:46:16.612Z,2.80
2023-04-27T06:48:42.984Z,2.10
2023-04-27T06:51:09.323Z,2.70
2023-04-27T06:53:46.169Z,3.03
2023-04-27T06:56:12.531Z,2.88
2023-04-27T06:58:38.890Z,2.83
2023-04-27T07:01:05.389Z,3.00
2023-04-27T07:03:34.429Z,3.58
2023-04-27T07:06:00.909Z,3.53
2023-04-27T07:08:27.196Z,3.25
2023-04-27T07:10:53.635Z,3.70
2023-04-27T07:13:19.928Z,3.13
2023-04-27T07:15:46.404Z,4.05
2023-04-27T07:18:12.683Z,4.35
2023-04-27T07:20:39.096Z,4.03
2023-04-27T07:23:05.337Z,3.97
2023-04-27T07:25:31.600Z,3.28
2023-04-27T07:27:59.749Z,4.07
2023-04-27T07:30:26.097Z,4.00
2023-04-27T07:32:56.611Z,4.35
2023-04-27T07:35:23.008Z,3.80
2023-04-27T07:37:49.405Z,4.38
2023-04-27T07:40:17.039Z,3.97
2023-04-27T07:42:47.484Z,4.00
2023-04-27T07:45:14.071Z,4.10
2023-04-27T07:47:40.450Z,3.58
2023-04-27T07:50:07.501Z,4.03
2023-04-27T07:52:33.899Z,4.00
2023-04-27T07:55:00.529Z,3.53
2023-04-27T07:57:28.012Z,3.45
2023-04-27T07:59:54.285Z,3.65
2023-04-27T08:02:20.650Z,3.85
2023-04-27T08:04:48.228Z,4.03
2023-04-27T08:07:18.399Z,4.07
2023-04-27T08:09:45.728Z,4.28
2023-04-27T08:12:12.249Z,3.50
2023-04-27T08:14:38.634Z,4.07
2023-04-27T08:17:04.952Z,3.97
2023-04-27T08:19:31.332Z,3.40
2023-04-27T08:21:57.638Z,4.65
2023-04-27T08:24:23.972Z,4.07
2023-04-27T08:26:50.355Z,3.90
2023-04-27T08:29:26.883Z,3.97
2023-04-27T08:31:56.612Z,4.07
2023-04-27T08:34:23.266Z,4.63
2023-04-27T08:36:49.599Z,3.58
2023-04-27T08:39:16.021Z,4.22
2023-04-27T08:41:43.459Z,3.60
2023-04-27T08:44:10.106Z,3.47
2023-04-27T08:46:37.266Z,3.90
2023-04-27T08:49:03.985Z,3.65
2023-04-27T08:51:31.944Z,3.85
2023-04-27T08:53:58.474Z,3.90
2023-04-27T08:56:25.781Z,4.40
2023-04-27T08:58:52.341Z,3.78
2023-04-27T09:01:18.967Z,4.00
2023-04-27T09:03:46.827Z,3.70
2023-04-27T09:06:14.090Z,3.92
2023-04-27T09:08:44.701Z,3.75
2023-04-27T09:11:11.321Z,4.32
2023-04-27T09:13:38.973Z,3.72
2023-04-27T09:16:05.715Z,4.07
2023-04-27T09:18:35.245Z,3.92
2023-04-27T09:21:02.741Z,3.63
2023-04-27T09:23:33.431Z,3.45
2023-04-27T09:26:01.265Z,3.50
2023-04-27T09:28:28.284Z,3.53
2023-04-27T09:30:56.500Z,3.38
2023-04-27T09:33:32.617Z,2.88
2023-04-27T09:36:00.036Z,3.92
2023-04-27T09:38:27.791Z,3.63
2023-04-27T09:40:54.783Z,3.10
2023-04-27T09:43:21.929Z,3.22
2023-04-27T09:45:48.329Z,3.55
2023-04-27T09:48:14.672Z,2.97
2023-04-27T09:50:41.916Z,3.20
2023-04-27T09:53:10.125Z,3.17
2023-04-27T09:55:47.245Z,3.10
2023-04-27T09:58:28.586Z,3.00
2023-04-27T10:01:13.809Z,3.00
2023-04-27T10:03:45.687Z,3.00
2023-04-27T10:06:32.342Z,3.40
2023-04-27T10:09:38.601Z,3.38
2023-04-27T10:12:34.547Z,3.47
2023-04-27T10:15:11.042Z,2.88
2023-04-27T10:17:37.429Z,2.92
2023-04-27T10:20:05.034Z,3.20
2023-04-27T10:22:45.388Z,3.53
2023-04-27T10:25:26.532Z,2.83
2023-04-27T10:27:59.988Z,3.20
2023-04-27T10:30:31.079Z,2.92
2023-04-27T10:32:59.119Z,3.22
2023-04-27T10:35:33.080Z,2.88
2023-04-27T10:38:08.370Z,2.72
2023-04-27T10:40:35.951Z,2.97
2023-04-27T10:43:09.061Z,2.95
2023-04-27T10:45:36.280Z,3.38
2023-04-27T10:48:02.701Z,2.60
2023-04-27T10:50:29.319Z,2.65
2023-04-27T10:53:01.076Z,3.08
2023-04-27T10:55:28.411Z,3.13
2023-04-27T10:57:55.336Z,3.22
2023-04-27T11:00:32.337Z,3.55
2023-04-27T11:03:10.327Z,2.78
2023-04-27T11:05:37.116Z,3.08
2023-04-27T11:08:06.796Z,2.60
2023-04-27T11:10:34.050Z,2.97
2023-04-27T11:13:05.979Z,2.83
2023-04-27T11:15:41.463Z,2.90
2023-04-27T11:18:07.817Z,2.88
2023-04-27T11:20:35.154Z,3.10
2023-04-27T11:23:02.208Z,2.50
2023-04-27T11:25:29.037Z,2.80
2023-04-27T11:27:55.587Z,2.85
2023-04-27T11:30:22.673Z,2.88
2023-04-27T11:32:49.882Z,2.67
2023-04-27T11:35:16.697Z,2.72
2023-04-27T11:37:42.983Z,2.95
2023-04-27T11:40:12.627Z,2.60
2023-04-27T11:42:43.278Z,2.33
2023-04-27T11:45:11.480Z,2.40
2023-04-27T11:47:38.026Z,2.58
2023-04-27T11:50:08.296Z,2.50
2023-04-27T11:52:40.121Z,2.10
2023-04-27T11:55:09.049Z,2.55
2023-04-27T11:57:36.063Z,2.00
2023-04-27T12:00:10.666Z,2.45
2023-04-27T12:02:37.724Z,2.10
2023-04-27T12:05:04.706Z,2.95
2023-04-27T12:07:31.115Z,2.75
2023-04-27T12:09:59.484Z,2.30
2023-04-27T12:12:27.458Z,2.08
2023-04-27T12:14:53.788Z,2.78
2023-04-27T12:17:20.132Z,2.28
2023-04-27T12:19:46.545Z,2.08
2023-04-27T12:22:12.923Z,2.25
2023-04-27T12:24:39.265Z,2.08
2023-04-27T12:27:05.576Z,1.92
2023-04-27T12:29:32.167Z,1.85
2023-04-27T12:31:58.735Z,2.17
2023-04-27T12:34:25.125Z,1.90
2023-04-27T12:36:51.816Z,2.00
2023-04-27T12:39:19.725Z,1.92
2023-04-27T12:41:47.018Z,2.10
2023-04-27T12:44:13.961Z,1.92
2023-04-27T12:46:41.674Z,1.90
2023-04-27T12:49:08.225Z,2.25
2023-04-27T12:51:34.752Z,1.92
2023-04-27T12:54:01.741Z,1.88
2023-04-27T12:56:28.143Z,2.03
2023-04-27T12:58:55.122Z,2.10
2023-04-27T13:01:24.762Z,2.15
2023-04-27T13:03:52.009Z,2.10
2023-04-27T13:06:18.590Z,1.90
2023-04-27T13:08:48.470Z,1.83
2023-04-27T13:11:14.871Z,1.83
2023-04-27T13:13:41.261Z,2.30
2023-04-27T13:16:07.567Z,2.00
2023-04-27T13:18:35.137Z,1.70
2023-04-27T13:21:02.369Z,1.80
2023-04-27T13:23:28.641Z,1.88
2023-04-27T13:25:55.297Z,2.15
2023-04-27T13:28:21.649Z,1.70
2023-04-27T13:30:48.837Z,2.00
2023-04-27T13:33:22.461Z,1.80
2023-04-27T13:35:50.464Z,2.08
2023-04-27T13:38:18.408Z,1.95
2023-04-27T13:40:44.818Z,1.88
2023-04-27T13:43:14.839Z,2.22
2023-04-27T13:45:42.570Z,1.83
2023-04-27T13:48:09.043Z,1.77
2023-04-27T13:50:35.393Z,1.50
2023-04-27T13:53:02.140Z,2.00
2023-04-27T13:55:28.751Z,1.90
2023-04-27T13:57:55.024Z,1.88
2023-04-27T14:00:21.555Z,1.90
2023-04-27T14:02:47.973Z,2.40
2023-04-27T14:05:14.523Z,2.10
2023-04-27T14:07:41.414Z,2.17
2023-04-27T14:10:08.258Z,2.08
2023-04-27T14:12:36.382Z,2.15
2023-04-27T14:15:02.843Z,1.90
2023-04-27T14:17:29.245Z,2.25
2023-04-27T14:19:55.692Z,1.98
2023-04-27T14:22:21.973Z,1.90
2023-04-27T14:24:48.321Z,2.13
2023-04-27T14:27:15.109Z,2.10
2023-04-27T14:29:41.375Z,2.35
2023-04-27T14:32:08.797Z,2.03
2023-04-27T14:34:35.249Z,2.03
2023-04-27T14:37:01.573Z,1.55
2023-04-27T14:39:28.157Z,2.30
2023-04-27T14:41:55.392Z,2.15
2023-04-27T14:44:22.483Z,1.80
2023-04-27T14:46:48.823Z,2.20
2023-04-27T14:49:15.576Z,2.30
2023-04-27T14:51:43.608Z,2.10
2023-04-27T14:54:10.387Z,2.25
2023-04-27T14:56:39.378Z,2.60
2023-04-27T14:59:06.075Z,1.98
2023-04-27T15:01:36.450Z,2.20
2023-04-27T15:04:03.009Z,1.90
2023-04-27T15:06:30.403Z,2.00
2023-04-27T15:08:56.939Z,2.00
2023-04-27T15:11:23.624Z,1.98
2023-04-27T15:13:50.076Z,1.92
2023-04-27T15:16:16.559Z,1.88
2023-04-27T15:18:43.213Z,1.92
2023-04-27T15:21:09.791Z,2.33
2023-04-27T15:23:37.281Z,1.90
2023-04-27T15:26:03.788Z,2.20
2023-04-27T15:28:30.591Z,2.00
2023-04-27T15:30:56.902Z,2.10
2023-04-27T15:33:23.418Z,2.05
2023-04-27T15:35:50.338Z,1.98
2023-04-27T15:38:17.829Z,1.98
2023-04-27T15:40:44.134Z,1.70
2023-04-27T15:43:10.500Z,1.90
2023-04-27T15:45:37.147Z,1.80
2023-04-27T15:48:03.978Z,1.80
2023-04-27T15:50:31.081Z,1.70
2023-04-27T15:52:57.496Z,2.10
2023-04-27T15:55:23.909Z,2.10
2023-04-27T15:57:50.591Z,2.08
2023-04-27T16:00:17.961Z,1.92
2023-04-27T16:02:44.440Z,2.28
2023-04-27T16:05:10.950Z,2.20
2023-04-27T16:07:39.413Z,1.77
2023-04-27T16:10:06.372Z,2.00
2023-04-27T16:12:32.691Z,1.88
2023-04-27T16:14:59.127Z,2.08
2023-04-27T16:17:33.689Z,1.85
2023-04-27T16:20:00.289Z,2.00
2023-04-27T16:22:28.490Z,1.95
2023-04-27T16:24:54.830Z,1.98
2023-04-27T16:27:21.208Z,2.42
2023-04-27T16:29:47.498Z,1.95
2023-04-27T16:32:13.942Z,2.42
2023-04-27T16:34:40.552Z,2.15
2023-04-27T16:37:06.834Z,1.90
2023-04-27T16:39:33.598Z,1.98
2023-04-27T16:41:59.968Z,2.53
2023-04-27T16:44:26.264Z,2.30
2023-04-27T16:46:52.716Z,2.35
2023-04-27T16:49:19.569Z,2.08
2023-04-27T16:51:46.848Z,2.10
2023-04-27T16:54:16.637Z,2.42
2023-04-27T16:56:42.988Z,2.08
2023-04-27T16:59:12.124Z,2.05
2023-04-27T17:01:38.657Z,2.40
2023-04-27T17:04:05.076Z,1.92
2023-04-27T17:06:31.573Z,1.80
2023-04-27T17:08:58.159Z,2.42
2023-04-27T17:11:24.574Z,2.28
2023-04-27T17:13:51.626Z,2.22
2023-04-27T17:16:18.504Z,2.05
2023-04-27T17:18:46.392Z,2.40
2023-04-27T17:21:12.984Z,2.20
2023-04-27T17:23:41.269Z,2.38
2023-04-27T17:26:07.841Z,2.20
2023-04-27T17:28:35.012Z,2.22
2023-04-27T17:31:01.743Z,2.55
2023-04-27T17:33:28.183Z,2.15
2023-04-27T17:35:54.508Z,2.40
2023-04-27T17:38:20.846Z,2.40
2023-04-27T17:40:47.151Z,2.40
2023-04-27T17:43:13.533Z,2.60
2023-04-27T17:45:39.792Z,2.95
2023-04-27T17:48:07.391Z,2.60
2023-04-27T17:50:35.965Z,2.80
2023-04-27T17:53:02.826Z,2.60
2023-04-27T17:55:29.132Z,3.28
2023-04-27T17:57:59.972Z,3.28
2023-04-27T18:00:27.162Z,3.13
2023-04-27T18:02:53.678Z,3.33
2023-04-27T18:05:20.645Z,3.08
2023-04-27T18:07:46.954Z,3.22
2023-04-27T18:10:13.496Z,3.08
2023-04-27T18:12:39.894Z,3.30
2023-04-27T18:15:09.444Z,2.78
2023-04-27T18:17:38.876Z,3.80
2023-04-27T18:20:09.633Z,3.42
2023-04-27T18:22:36.418Z,3.33
2023-04-27T18:25:02.737Z,3.50
2023-04-27T18:27:29.139Z,4.03
2023-04-27T18:29:55.792Z,3.15
2023-04-27T18:32:22.213Z,3.08
2023-04-27T18:34:48.478Z,3.70
2023-04-27T18:37:14.792Z,4.13
2023-04-27T18:39:41.291Z,3.80
2023-04-27T18:42:07.747Z,4.00
2023-04-27T18:44:34.074Z,4.03
2023-04-27T18:47:00.381Z,3.13
2023-04-27T18:49:26.644Z,4.03
2023-04-27T18:51:52.939Z,4.10
2023-04-27T18:54:19.209Z,3.65
2023-04-27T18:56:45.634Z,3.70
2023-04-27T18:59:12.014Z,3.80
2023-04-27T19:01:39.731Z,3.72
2023-04-27T19:04:07.260Z,3.53
2023-04-27T19:06:33.765Z,3.78
2023-04-27T19:09:00.146Z,3.67
2023-04-27T19:11:26.522Z,3.20
2023-04-27T19:13:53.836Z,3.10
2023-04-27T19:16:20.744Z,4.13
2023-04-27T19:18:47.129Z,3.20
2023-04-27T19:21:13.817Z,3.47
2023-04-27T19:23:40.191Z,3.85
2023-04-27T19:26:12.902Z,4.22
2023-04-27T19:28:39.914Z,3.55
2023-04-27T19:31:06.886Z,3.13
2023-04-27T19:33:33.333Z,3.75
2023-04-27T19:35:59.639Z,3.58
2023-04-27T19:38:26.756Z,3.95
2023-04-27T19:40:53.084Z,3.80
2023-04-27T19:43:19.400Z,3.67
2023-04-27T19:45:45.824Z,3.38
2023-04-27T19:48:12.196Z,3.03
2023-04-27T19:50:40.835Z,3.30
2023-04-27T19:53:07.209Z,3.47
2023-04-27T19:55:33.549Z,4.55
2023-04-27T19:57:59.796Z,3.38
2023-04-27T20:00:26.097Z,3.92
2023-04-27T20:02:53.553Z,3.75
2023-04-27T20:05:20.704Z,3.00
2023-04-27T20:07:50.793Z,3.22
2023-04-27T20:10:17.322Z,3.05
2023-04-27T20:12:55.406Z,3.20
2023-04-27T20:15:23.281Z,3.42
2023-04-27T20:17:49.567Z,3.05
2023-04-27T20:20:15.927Z,2.88
2023-04-27T20:22:42.245Z,3.20
2023-04-27T20:25:08.761Z,3.35
2023-04-27T20:27:35.744Z,3.30
2023-04-27T20:30:02.354Z,3.42
2023-04-27T20:32:28.654Z,3.15
2023-04-27T20:34:54.900Z,3.03
2023-04-27T20:37:21.311Z,3.25
2023-04-27T20:39:47.605Z,2.67
2023-04-27T20:42:14.433Z,3.05
2023-04-27T20:44:40.688Z,3.45
2023-04-27T20:47:07.030Z,3.08
2023-04-27T20:49:35.442Z,3.83
2023-04-27T20:52:02.331Z,4.18
2023-04-27T20:54:30.946Z,3.50
2023-04-27T20:56:57.753Z,3.22
2023-04-27T20:59:24.123Z,2.88
2023-04-27T21:01:50.469Z,2.95
2023-04-27T21:04:17.307Z,3.08
2023-04-27T21:06:43.840Z,3.53
2023-04-27T21:09:10.226Z,3.20
2023-04-27T21:11:36.567Z,3.17
2023-04-27T21:14:02.806Z,2.65
2023-04-27T21:16:29.100Z,3.53
2023-04-27T21:18:55.388Z,3.38
2023-04-27T21:21:22.122Z,2.83
2023-04-27T21:23:54.367Z,3.70
2023-04-27T21:26:27.004Z,3.08
2023-04-27T21:28:53.250Z,3.10
2023-04-27T21:31:20.757Z,3.33
2023-04-27T21:33:50.042Z,3.60
2023-04-27T21:36:16.296Z,3.00
2023-04-27T21:38:42.565Z,3.33
2023-04-27T21:41:08.869Z,2.97
2023-04-27T21:43:35.969Z,3.03
2023-04-27T21:46:02.350Z,3.80
2023-04-27T21:48:28.659Z,2.90
2023-04-27T21:50:54.922Z,2.90
2023-04-27T21:53:21.215Z,2.92
2023-04-27T21:55:47.457Z,3.63
2023-04-27T21:58:13.743Z,3.45
2023-04-27T22:00:40.075Z,2.97
2023-04-27T22:03:06.423Z,2.78
2023-04-27T22:05:33.495Z,3.22
2023-04-27T22:07:59.844Z,2.92
2023-04-27T22:10:26.216Z,2.80
2023-04-27T22:12:52.976Z,3.03
2023-04-27T22:15:20.279Z,2.95
2023-04-27T22:17:50.013Z,3.40
2023-04-27T22:20:17.287Z,2.85
2023-04-27T22:22:43.582Z,3.45
2023-04-27T22:25:10.914Z,3.15
2023-04-27T22:27:44.895Z,2.80
2023-04-27T22:30:12.153Z,2.80
2023-04-27T22:32:38.455Z,2.70
2023-04-27T22:35:12.921Z,2.88
2023-04-27T22:37:44.179Z,2.75
2023-04-27T22:40:11.632Z,2.67
2023-04-27T22:42:37.935Z,2.50
2023-04-27T22:45:04.650Z,2.47
2023-04-27T22:47:31.018Z,3.53
2023-04-27T22:49:57.418Z,2.85
2023-04-27T22:52:29.383Z,3.15
2023-04-27T22:54:58.298Z,2.80
2023-04-27T22:57:24.599Z,2.80
2023-04-27T22:59:51.526Z,2.75
2023-04-27T23:02:17.919Z,2.72
2023-04-27T23:04:44.387Z,2.67
2023-04-27T23:07:11.042Z,2.90
2023-04-27T23:09:37.765Z,2.85
2023-04-27T23:12:04.280Z,2.90
2023-04-27T23:14:32.916Z,3.08
2023-04-27T23:16:59.274Z,2.95
2023-04-27T23:19:25.656Z,2.78
2023-04-27T23:21:51.928Z,3.35
2023-04-27T23:24:18.388Z,3.28
2023-04-27T23:26:44.834Z,3.00
2023-04-27T23:29:11.378Z,3.00
2023-04-27T23:31:39.261Z,2.95
2023-04-27T23:34:05.540Z,3.17
2023-04-27T23:36:31.821Z,2.83
2023-04-27T23:38:58.196Z,2.92
2023-04-27T23:41:24.549Z,3.55
2023-04-27T23:43:50.795Z,2.92
2023-04-27T23:46:17.166Z,2.75
2023-04-27T23:48:43.553Z,2.38
2023-04-27T23:51:09.844Z,2.88
2023-04-27T23:53:36.342Z,2.50
2023-04-27T23:56:02.636Z,2.97
2023-04-27T23:58:28.941Z,2.70
